International Virtual Aviation Organisation

Russian Federation and Kazakhstan MCD

 

Карточка аэропорта UAKK

Внимание!
Информация на этой странице в стадии наполнения.
Если вы не увидели какой-то информации, или заметили неточность - пожалуйста сообщите нам!
Спасибо!
Команда RU-STAFF
Название аэропортаКараганда
Название аэропорта (англ.)Karaganda
Превышение1768 ft. (538.9 m.)
Координаты49°40.302', 73°20.118'
Высота перехода5380
Эшелон переходаFL70
Коды ответчика0630-0637, 7220-7227
Зона ОрВДАстана РПИ (UACC)
Данные METARUAKK 242330Z 00000MPS 0300 R05/0800N FG VV002 01/00 Q1022 R05/1///65 TEMPO 0200 FG VV001 RMK QBB080 QFE719/0959
Проноз погоды (TAF)UAKK 241700Z 2418/2518 VRB02MPS 0600 FG VV002 TX03/2510Z TNM01/2423Z TEMPO 2418/2420 0300 FG VV001 TEMPO 2420/2504 0300 FZFG VV001 BECMG 2506/2508 5000 BR BKN005 BKN011
NOTAMshow/hide NOTAM
AWOS   TABLE

Информация о ВПП

ВПП Длина ВПП (м.) Покрытие Курс ВПП Частота ILS
053601Железобетон50109.9
233601Железобетон230111.7

Диспетчерские позиции




Спутниковое изображение